createdAt,value
2018-05-13T00:00:20.546Z,64.16
2018-05-13T00:02:49.777Z,63.55
2018-05-13T00:05:19.113Z,63.63
2018-05-13T00:07:48.329Z,63.78
2018-05-13T00:10:17.546Z,64.19
2018-05-13T00:12:46.795Z,64.16
2018-05-13T00:15:16.378Z,64.15
2018-05-13T00:17:46.386Z,64.56
2018-05-13T00:20:15.623Z,64.53
2018-05-13T00:22:44.835Z,64.04
2018-05-13T00:25:14.123Z,63.89
2018-05-13T00:27:44.074Z,64.22
2018-05-13T00:30:13.277Z,64.08
2018-05-13T00:32:42.535Z,64.28
2018-05-13T00:35:11.768Z,64.17
2018-05-13T00:37:41.019Z,64.53
2018-05-13T00:40:10.975Z,64.46
2018-05-13T00:42:40.322Z,64.62
2018-05-13T00:45:10.367Z,64.21
2018-05-13T00:47:39.582Z,64.17
2018-05-13T00:50:08.813Z,64.14
2018-05-13T00:52:38.032Z,64.24
2018-05-13T00:55:08.014Z,64.31
2018-05-13T00:57:37.253Z,64.49
2018-05-13T01:00:06.504Z,64.26
2018-05-13T01:02:35.708Z,64.43
2018-05-13T01:05:04.946Z,64.60
2018-05-13T01:07:34.299Z,64.87
2018-05-13T01:10:03.469Z,64.88
2018-05-13T01:12:32.765Z,64.96
2018-05-13T01:15:02.001Z,65.62
2018-05-13T01:17:31.204Z,64.95
2018-05-13T01:20:00.483Z,64.82
2018-05-13T01:22:29.678Z,64.91
2018-05-13T01:24:58.902Z,65.13
2018-05-13T01:27:28.186Z,65.13
2018-05-13T01:29:57.427Z,65.17
2018-05-13T01:32:27.422Z,65.48
2018-05-13T01:34:56.761Z,65.73
2018-05-13T01:37:25.965Z,66.06
2018-05-13T01:39:55.182Z,66.22
2018-05-13T01:42:24.421Z,66.58
2018-05-13T01:44:53.633Z,66.80
2018-05-13T01:47:22.849Z,67.08
2018-05-13T01:49:52.070Z,67.42
2018-05-13T01:52:21.425Z,67.56
2018-05-13T01:54:51.438Z,68.02
2018-05-13T01:57:21.483Z,68.46
2018-05-13T01:59:50.706Z,68.84
2018-05-13T02:02:19.927Z,68.99
2018-05-13T02:04:49.555Z,69.28
2018-05-13T02:07:19.567Z,69.37
2018-05-13T02:09:48.786Z,69.51
2018-05-13T02:12:17.989Z,69.71
2018-05-13T02:14:47.203Z,69.63
2018-05-13T02:17:16.409Z,69.74
2018-05-13T02:19:45.654Z,69.88
2018-05-13T02:22:15.633Z,70.59
2018-05-13T02:24:44.947Z,70.69
2018-05-13T02:27:14.181Z,71.21
2018-05-13T02:29:44.167Z,71.56
2018-05-13T02:32:13.438Z,71.49
2018-05-13T02:34:42.663Z,72.32
2018-05-13T02:37:11.895Z,72.57
2018-05-13T02:39:41.870Z,72.49
2018-05-13T02:42:11.114Z,72.77
2018-05-13T02:44:41.061Z,72.99
2018-05-13T02:47:10.276Z,73.06
2018-05-13T02:49:39.490Z,73.35
2018-05-13T02:52:08.700Z,73.63
2018-05-13T02:54:38.706Z,73.45
2018-05-13T02:57:08.788Z,73.58
2018-05-13T02:59:37.986Z,73.39
2018-05-13T03:02:07.218Z,72.95
2018-05-13T03:04:36.463Z,72.86
2018-05-13T03:07:05.683Z,72.82
2018-05-13T03:09:34.910Z,73.01
2018-05-13T03:12:04.139Z,73.32
2018-05-13T03:14:33.390Z,73.25
2018-05-13T03:17:02.649Z,73.12
2018-05-13T03:19:31.849Z,73.04
2018-05-13T03:22:01.071Z,73.16
2018-05-13T03:24:30.291Z,73.25
2018-05-13T03:26:59.492Z,73.39
2018-05-13T03:29:28.742Z,73.44
2018-05-13T03:31:57.929Z,73.37
2018-05-13T03:34:27.182Z,73.73
2018-05-13T03:36:56.380Z,73.63
2018-05-13T03:39:25.618Z,73.55
2018-05-13T03:41:54.834Z,73.84
2018-05-13T03:44:24.235Z,74.19
2018-05-13T03:46:53.453Z,74.74
2018-05-13T03:49:22.682Z,75.04
2018-05-13T03:51:51.898Z,74.97
2018-05-13T03:54:21.869Z,75.21
2018-05-13T03:56:51.078Z,75.45
2018-05-13T03:59:20.302Z,76.04
2018-05-13T04:01:50.298Z,76.20
2018-05-13T04:04:19.540Z,76.05
2018-05-13T04:06:48.807Z,76.25
2018-05-13T04:09:35.680Z,76.16
2018-05-13T04:12:22.621Z,76.39
2018-05-13T04:15:24.523Z,76.08
2018-05-13T04:17:54.493Z,76.17
2018-05-13T04:20:23.745Z,76.08
2018-05-13T04:22:52.949Z,75.93
2018-05-13T04:25:23.773Z,76.03
2018-05-13T04:27:52.973Z,75.72
2018-05-13T04:30:22.190Z,75.60
2018-05-13T04:32:51.388Z,75.38
2018-05-13T04:35:20.629Z,75.28
2018-05-13T04:37:49.841Z,75.34
2018-05-13T04:40:19.099Z,75.62
2018-05-13T04:42:48.347Z,74.93
2018-05-13T04:45:18.359Z,74.60
2018-05-13T04:47:48.355Z,74.70
2018-05-13T04:50:18.427Z,74.74
2018-05-13T04:52:47.634Z,74.93
2018-05-13T04:55:16.997Z,74.85
2018-05-13T04:57:46.293Z,74.99
2018-05-13T05:00:15.522Z,75.15
2018-05-13T05:02:44.811Z,74.93
2018-05-13T05:05:14.020Z,74.73
2018-05-13T05:07:43.352Z,74.52
2018-05-13T05:10:12.613Z,74.31
2018-05-13T05:12:42.664Z,74.18
2018-05-13T05:15:11.870Z,73.87
2018-05-13T05:17:41.130Z,73.43
2018-05-13T05:20:10.332Z,73.27
2018-05-13T05:22:39.566Z,73.33
2018-05-13T05:25:08.815Z,73.07
2018-05-13T05:27:38.052Z,72.92
2018-05-13T05:30:07.262Z,72.14
2018-05-13T05:32:36.483Z,71.97
2018-05-13T05:35:06.503Z,71.97
2018-05-13T05:37:36.463Z,71.95
2018-05-13T05:40:05.691Z,71.91
2018-05-13T05:42:34.969Z,71.48
2018-05-13T05:45:04.197Z,71.66
2018-05-13T05:47:33.392Z,71.45
2018-05-13T05:50:02.665Z,71.15
2018-05-13T05:52:31.924Z,70.87
2018-05-13T05:55:01.277Z,70.48
2018-05-13T05:57:30.503Z,70.31
2018-05-13T06:00:00.503Z,70.35
2018-05-13T06:02:29.732Z,70.42
2018-05-13T06:04:59.090Z,70.00
2018-05-13T06:07:28.314Z,69.34
2018-05-13T06:09:58.287Z,69.56
2018-05-13T06:12:27.599Z,69.17
2018-05-13T06:14:57.069Z,69.94
2018-05-13T06:17:26.244Z,69.32
2018-05-13T06:19:55.457Z,69.67
2018-05-13T06:22:24.724Z,69.03
2018-05-13T06:24:54.754Z,68.65
2018-05-13T06:27:24.025Z,70.09
2018-05-13T06:29:53.293Z,69.97
2018-05-13T06:32:22.569Z,70.35
2018-05-13T06:34:51.809Z,69.36
2018-05-13T06:37:21.873Z,70.46
2018-05-13T06:39:51.120Z,69.60
2018-05-13T06:42:20.413Z,69.92
2018-05-13T06:44:49.789Z,69.19
2018-05-13T06:47:18.998Z,69.03
2018-05-13T06:49:48.389Z,68.63
2018-05-13T06:52:17.629Z,68.00
2018-05-13T06:54:46.838Z,67.30
2018-05-13T06:57:16.156Z,66.74
2018-05-13T06:59:45.277Z,64.73
2018-05-13T07:02:14.529Z,63.25
2018-05-13T07:04:43.726Z,61.73
2018-05-13T07:07:13.750Z,61.21
2018-05-13T07:09:43.770Z,59.20
2018-05-13T07:12:13.782Z,57.66
2018-05-13T07:14:43.794Z,57.37
2018-05-13T07:17:13.014Z,57.30
2018-05-13T07:19:42.281Z,58.89
2018-05-13T07:22:12.266Z,59.23
2018-05-13T07:24:41.501Z,56.82
2018-05-13T07:27:11.499Z,57.10
2018-05-13T07:29:40.742Z,56.48
2018-05-13T07:32:10.720Z,55.76
2018-05-13T07:34:39.930Z,55.52
2018-05-13T07:37:09.138Z,55.77
2018-05-13T07:39:38.379Z,54.77
2018-05-13T07:42:07.610Z,55.92
2018-05-13T07:44:36.869Z,56.33
2018-05-13T07:47:06.105Z,55.20
2018-05-13T07:49:35.339Z,54.31
2018-05-13T07:52:04.579Z,54.85
2018-05-13T07:54:33.883Z,53.99
2018-05-13T07:57:03.102Z,55.02
2018-05-13T07:59:32.379Z,54.66
2018-05-13T08:02:01.601Z,54.79
2018-05-13T08:04:30.830Z,54.49
2018-05-13T08:07:00.790Z,54.48
2018-05-13T08:09:31.551Z,53.06
2018-05-13T08:12:00.909Z,52.92
2018-05-13T08:14:30.927Z,54.30
2018-05-13T08:17:00.162Z,52.28
2018-05-13T08:19:29.457Z,50.89
2018-05-13T08:21:58.853Z,50.74
2018-05-13T08:24:28.091Z,52.08
2018-05-13T08:26:57.329Z,50.91
2018-05-13T08:29:26.508Z,49.22
2018-05-13T08:31:55.769Z,48.96
2018-05-13T08:34:25.758Z,46.44
2018-05-13T08:36:55.039Z,46.69
2018-05-13T08:39:24.258Z,48.31
2018-05-13T08:41:53.569Z,49.86
2018-05-13T08:44:22.729Z,49.79
2018-05-13T08:46:51.962Z,51.23
2018-05-13T08:49:21.205Z,52.54
2018-05-13T08:51:50.407Z,53.13
2018-05-13T08:54:19.611Z,53.34
2018-05-13T08:56:48.911Z,50.90
2018-05-13T08:59:18.104Z,48.14
2018-05-13T09:01:47.370Z,47.68
2018-05-13T09:04:17.326Z,48.42
2018-05-13T09:06:46.612Z,48.68
2018-05-13T09:09:15.827Z,48.57
2018-05-13T09:11:45.165Z,50.06
2018-05-13T09:14:15.194Z,49.98
2018-05-13T09:16:44.377Z,50.47
2018-05-13T09:19:13.611Z,50.95
2018-05-13T09:21:43.599Z,48.52
2018-05-13T09:24:12.787Z,48.05
2018-05-13T09:26:42.081Z,47.38
2018-05-13T09:29:11.985Z,48.11
2018-05-13T09:31:41.972Z,49.45
2018-05-13T09:34:11.215Z,51.27
2018-05-13T09:36:40.417Z,49.76
2018-05-13T09:39:10.457Z,49.97
2018-05-13T09:41:40.429Z,48.49
2018-05-13T09:44:09.663Z,47.61
2018-05-13T09:46:39.646Z,48.88
2018-05-13T09:49:08.936Z,47.38
2018-05-13T09:51:38.129Z,48.49
2018-05-13T09:54:08.861Z,48.96
2018-05-13T09:56:38.101Z,49.73
2018-05-13T09:59:07.312Z,48.65
2018-05-13T10:01:37.373Z,49.31
2018-05-13T10:04:06.692Z,49.44
2018-05-13T10:06:35.818Z,49.80
2018-05-13T10:09:06.579Z,48.82
2018-05-13T10:11:36.515Z,50.06
2018-05-13T10:14:06.395Z,49.88
2018-05-13T10:16:35.620Z,51.00
2018-05-13T10:19:04.882Z,51.36
2018-05-13T10:21:34.105Z,51.81
2018-05-13T10:24:03.381Z,52.03
2018-05-13T10:26:32.709Z,51.52
2018-05-13T10:29:02.756Z,51.79
2018-05-13T10:31:31.983Z,52.62
2018-05-13T10:34:01.204Z,51.10
2018-05-13T10:36:30.534Z,51.29
2018-05-13T10:38:59.663Z,51.80
2018-05-13T10:41:29.672Z,51.53
2018-05-13T10:43:58.949Z,52.51
2018-05-13T10:46:29.270Z,53.54
2018-05-13T10:48:58.487Z,53.44
2018-05-13T10:51:27.738Z,53.50
2018-05-13T10:53:56.944Z,53.71
2018-05-13T10:56:26.182Z,55.97
2018-05-13T10:58:55.394Z,55.74
2018-05-13T11:01:25.464Z,55.19
2018-05-13T11:03:54.686Z,55.45
2018-05-13T11:06:23.952Z,56.90
2018-05-13T11:08:53.190Z,57.00
2018-05-13T11:11:22.412Z,56.47
2018-05-13T11:13:52.415Z,56.93
2018-05-13T11:16:21.668Z,56.91
2018-05-13T11:18:50.870Z,57.50
2018-05-13T11:21:20.081Z,57.73
2018-05-13T11:23:49.548Z,57.15
2018-05-13T11:26:18.977Z,58.08
2018-05-13T11:28:48.215Z,58.02
2018-05-13T11:31:17.437Z,58.32
2018-05-13T11:33:46.702Z,59.42
2018-05-13T11:36:15.887Z,60.11
2018-05-13T11:38:46.209Z,60.29
2018-05-13T11:41:15.439Z,61.12
2018-05-13T11:43:45.480Z,61.38
2018-05-13T11:46:14.749Z,61.53
2018-05-13T11:48:43.997Z,61.97
2018-05-13T11:51:13.399Z,62.54
2018-05-13T11:53:42.629Z,63.15
2018-05-13T11:56:11.849Z,63.94
2018-05-13T11:58:45.394Z,63.94
2018-05-13T12:01:14.622Z,64.94
2018-05-13T12:03:43.833Z,65.25
2018-05-13T12:06:13.862Z,65.57
2018-05-13T12:08:43.907Z,66.23
2018-05-13T12:11:13.233Z,66.89
2018-05-13T12:13:42.515Z,67.47
2018-05-13T12:16:11.724Z,68.51
2018-05-13T12:18:41.040Z,69.09
2018-05-13T12:21:10.300Z,68.75
2018-05-13T12:23:40.278Z,69.08
2018-05-13T12:26:10.268Z,69.37
2018-05-13T12:28:39.537Z,70.55
2018-05-13T12:31:08.785Z,72.17
2018-05-13T12:33:38.136Z,74.24
2018-05-13T12:36:07.511Z,75.23
2018-05-13T12:38:36.754Z,76.04
2018-05-13T12:41:05.971Z,76.33
2018-05-13T12:43:35.181Z,76.87
2018-05-13T12:46:04.584Z,77.53
2018-05-13T12:48:34.584Z,78.23
2018-05-13T12:51:03.821Z,78.24
2018-05-13T12:53:33.147Z,79.31
2018-05-13T12:56:02.517Z,79.79
2018-05-13T12:58:32.668Z,80.59
2018-05-13T13:01:01.877Z,81.64
2018-05-13T13:03:31.104Z,82.88
2018-05-13T13:06:00.353Z,82.90
2018-05-13T13:08:29.570Z,84.05
2018-05-13T13:10:58.873Z,84.25
2018-05-13T13:13:28.102Z,83.55
2018-05-13T13:15:57.332Z,83.91
2018-05-13T13:18:26.603Z,84.42
2018-05-13T13:20:55.839Z,84.69
2018-05-13T13:23:25.091Z,84.78
2018-05-13T13:25:54.445Z,85.24
2018-05-13T13:28:23.596Z,85.79
2018-05-13T13:30:52.805Z,85.00
2018-05-13T13:33:22.823Z,84.66
2018-05-13T13:35:52.821Z,85.29
2018-05-13T13:38:22.037Z,86.60
2018-05-13T13:40:52.041Z,86.74
2018-05-13T13:43:21.567Z,88.58
2018-05-13T13:45:50.805Z,88.78
2018-05-13T13:48:20.058Z,89.26
2018-05-13T13:50:49.264Z,89.86
2018-05-13T13:53:19.464Z,90.54
2018-05-13T13:55:49.463Z,90.71
2018-05-13T13:58:18.778Z,89.92
2018-05-13T14:00:48.335Z,89.99
2018-05-13T14:03:17.581Z,89.61
2018-05-13T14:05:47.613Z,89.72
2018-05-13T14:08:17.133Z,89.77
2018-05-13T14:10:47.137Z,88.98
2018-05-13T14:13:17.129Z,89.82
2018-05-13T14:15:46.390Z,90.97
2018-05-13T14:18:15.641Z,90.68
2018-05-13T14:20:45.661Z,90.76
2018-05-13T14:23:15.653Z,91.07
2018-05-13T14:25:44.918Z,91.18
2018-05-13T14:28:14.137Z,91.34
2018-05-13T14:30:43.404Z,91.85
2018-05-13T14:33:12.645Z,91.82
2018-05-13T14:35:41.883Z,91.00
2018-05-13T14:38:11.172Z,90.90
2018-05-13T14:40:40.441Z,91.15
2018-05-13T14:43:09.665Z,90.98
2018-05-13T14:45:39.679Z,90.44
2018-05-13T14:48:09.669Z,90.12
2018-05-13T14:50:38.933Z,89.88
2018-05-13T14:53:08.180Z,89.59
2018-05-13T14:55:37.446Z,89.68
2018-05-13T14:58:06.722Z,89.75
2018-05-13T15:00:36.824Z,88.19
2018-05-13T15:03:06.791Z,87.79
2018-05-13T15:05:36.109Z,88.14
2018-05-13T15:08:05.495Z,89.29
2018-05-13T15:10:34.741Z,90.16
2018-05-13T15:13:04.022Z,91.08
2018-05-13T15:15:34.101Z,89.89
2018-05-13T15:18:03.360Z,88.16
2018-05-13T15:20:32.568Z,87.76
2018-05-13T15:23:01.837Z,88.66
2018-05-13T15:25:31.900Z,89.01
2018-05-13T15:28:01.195Z,88.92
2018-05-13T15:30:30.571Z,89.70
2018-05-13T15:32:59.815Z,90.11
2018-05-13T15:35:29.061Z,90.49
2018-05-13T15:37:58.282Z,90.48
2018-05-13T15:40:27.525Z,89.84
2018-05-13T15:42:57.037Z,90.57
2018-05-13T15:45:26.268Z,90.40
2018-05-13T15:47:55.530Z,90.33
2018-05-13T15:50:25.662Z,90.77
2018-05-13T15:52:54.863Z,90.79
2018-05-13T15:55:25.065Z,90.50
2018-05-13T15:57:54.482Z,90.67
2018-05-13T16:00:24.641Z,91.04
2018-05-13T16:02:53.875Z,90.59
2018-05-13T16:05:23.139Z,91.16
2018-05-13T16:07:52.594Z,91.25
2018-05-13T16:10:21.813Z,91.33
2018-05-13T16:12:51.069Z,90.76
2018-05-13T16:15:20.348Z,91.40
2018-05-13T16:17:49.590Z,91.35
2018-05-13T16:20:18.962Z,92.08
2018-05-13T16:22:48.195Z,91.70
2018-05-13T16:25:18.229Z,90.65
2018-05-13T16:27:48.317Z,90.02
2018-05-13T16:30:17.606Z,89.54
2018-05-13T16:32:47.663Z,89.01
2018-05-13T16:35:17.700Z,89.80
2018-05-13T16:37:46.915Z,89.97
2018-05-13T16:40:16.231Z,89.31
2018-05-13T16:42:45.488Z,89.43
2018-05-13T16:45:14.750Z,89.66
2018-05-13T16:47:45.551Z,90.00
2018-05-13T16:50:15.490Z,89.34
2018-05-13T16:52:44.891Z,89.26
2018-05-13T16:55:14.173Z,89.43
2018-05-13T16:57:43.511Z,89.62
2018-05-13T17:00:12.750Z,88.83
2018-05-13T17:02:42.100Z,87.49
2018-05-13T17:05:11.382Z,87.25
2018-05-13T17:07:40.723Z,86.75
2018-05-13T17:10:09.867Z,87.74
2018-05-13T17:12:39.091Z,88.12
2018-05-13T17:15:09.361Z,88.03
2018-05-13T17:17:38.634Z,88.22
2018-05-13T17:20:08.622Z,88.33
2018-05-13T17:22:37.870Z,88.65
2018-05-13T17:25:07.091Z,88.87
2018-05-13T17:27:36.346Z,88.61
2018-05-13T17:30:06.438Z,88.24
2018-05-13T17:32:35.816Z,87.70
2018-05-13T17:35:05.051Z,87.32
2018-05-13T17:37:35.249Z,87.67
2018-05-13T17:40:04.389Z,88.04
2018-05-13T17:42:33.667Z,87.88
2018-05-13T17:45:03.799Z,88.08
2018-05-13T17:47:33.809Z,87.40
2018-05-13T17:50:03.805Z,85.09
2018-05-13T17:52:33.798Z,85.77
2018-05-13T17:55:03.073Z,86.08
2018-05-13T17:57:32.384Z,86.23
2018-05-13T18:00:01.578Z,86.31
2018-05-13T18:02:30.953Z,86.95
2018-05-13T18:05:00.891Z,87.37
2018-05-13T18:07:30.249Z,88.12
2018-05-13T18:10:00.245Z,88.37
2018-05-13T18:12:29.519Z,87.80
2018-05-13T18:14:58.777Z,88.91
2018-05-13T18:17:28.010Z,89.40
2018-05-13T18:19:57.497Z,90.04
2018-05-13T18:22:26.731Z,90.77
2018-05-13T18:24:56.048Z,90.26
2018-05-13T18:27:25.323Z,90.32
2018-05-13T18:29:54.560Z,90.79
2018-05-13T18:32:23.832Z,90.47
2018-05-13T18:34:53.085Z,90.35
2018-05-13T18:37:22.363Z,90.18
2018-05-13T18:39:52.353Z,90.84
2018-05-13T18:42:21.646Z,90.80
2018-05-13T18:44:50.865Z,90.96
2018-05-13T18:47:20.144Z,91.06
2018-05-13T18:49:49.451Z,90.87
2018-05-13T18:52:18.733Z,90.87
2018-05-13T18:54:48.271Z,90.94
2018-05-13T18:57:18.280Z,90.75
2018-05-13T18:59:47.583Z,90.28
2018-05-13T19:02:17.614Z,90.60
2018-05-13T19:04:47.629Z,90.85
2018-05-13T19:07:16.902Z,90.62
2018-05-13T19:09:46.141Z,90.49
2018-05-13T19:12:15.434Z,90.41
2018-05-13T19:14:44.666Z,90.43
2018-05-13T19:17:13.941Z,90.87
2018-05-13T19:19:44.010Z,91.18
2018-05-13T19:22:13.244Z,91.66
2018-05-13T19:24:42.578Z,91.10
2018-05-13T19:27:12.553Z,90.92
2018-05-13T19:29:42.542Z,90.71
2018-05-13T19:32:11.963Z,90.65
2018-05-13T19:34:41.973Z,90.25
2018-05-13T19:37:11.993Z,89.87
2018-05-13T19:39:41.234Z,89.56
2018-05-13T19:42:10.470Z,90.43
2018-05-13T19:44:39.714Z,90.77
2018-05-13T19:47:08.942Z,91.06
2018-05-13T19:49:38.194Z,91.00
2018-05-13T19:52:08.201Z,91.36
2018-05-13T19:54:37.475Z,91.04
2018-05-13T19:57:06.713Z,91.31
2018-05-13T19:59:36.747Z,91.39
2018-05-13T20:02:05.984Z,90.72
2018-05-13T20:04:36.150Z,90.55
2018-05-13T20:07:06.119Z,89.87
2018-05-13T20:09:35.416Z,90.43
2018-05-13T20:12:04.609Z,90.87
2018-05-13T20:14:33.965Z,90.29
2018-05-13T20:17:03.944Z,90.75
2018-05-13T20:19:33.295Z,90.80
2018-05-13T20:22:02.522Z,90.67
2018-05-13T20:24:31.742Z,90.75
2018-05-13T20:27:01.000Z,91.14
2018-05-13T20:29:30.243Z,90.95
2018-05-13T20:32:00.314Z,90.10
2018-05-13T20:34:29.533Z,90.98
2018-05-13T20:36:58.759Z,91.27
2018-05-13T20:39:28.809Z,91.19
2018-05-13T20:41:58.859Z,91.19
2018-05-13T20:44:28.092Z,91.14
2018-05-13T20:46:58.108Z,91.09
2018-05-13T20:49:27.337Z,91.13
2018-05-13T20:51:56.677Z,91.23
2018-05-13T20:54:25.964Z,91.24
2018-05-13T20:56:55.189Z,91.24
2018-05-13T20:59:24.431Z,90.90
2018-05-13T21:01:53.669Z,90.83
2018-05-13T21:04:22.962Z,90.69
2018-05-13T21:06:52.191Z,90.91
2018-05-13T21:09:21.840Z,91.60
2018-05-13T21:11:51.046Z,91.28
2018-05-13T21:14:20.299Z,91.62
2018-05-13T21:16:49.592Z,91.91
2018-05-13T21:19:18.819Z,91.76
2018-05-13T21:21:48.782Z,91.35
2018-05-13T21:24:18.015Z,91.83
2018-05-13T21:26:47.201Z,91.89
2018-05-13T21:29:16.441Z,91.78
2018-05-13T21:31:46.509Z,91.76
2018-05-13T21:34:16.813Z,91.85
2018-05-13T21:36:46.018Z,91.76
2018-05-13T21:39:15.325Z,91.72
2018-05-13T21:41:44.534Z,91.67
2018-05-13T21:44:13.883Z,91.38
2018-05-13T21:46:43.096Z,91.00
2018-05-13T21:49:12.370Z,90.68
2018-05-13T21:51:41.572Z,90.68
2018-05-13T21:54:10.814Z,90.93
2018-05-13T21:56:40.947Z,91.06
2018-05-13T21:59:10.178Z,90.92
2018-05-13T22:01:40.154Z,90.99
2018-05-13T22:04:09.779Z,90.78
2018-05-13T22:06:39.858Z,90.78
2018-05-13T22:09:09.093Z,90.75
2018-05-13T22:11:38.336Z,90.73
2018-05-13T22:14:07.741Z,90.29
2018-05-13T22:16:36.962Z,89.96
2018-05-13T22:19:06.406Z,89.61
2018-05-13T22:21:35.637Z,89.24
2018-05-13T22:24:04.849Z,89.35
2018-05-13T22:26:34.077Z,89.39
2018-05-13T22:29:04.885Z,89.82
2018-05-13T22:31:34.146Z,89.95
2018-05-13T22:34:03.369Z,90.02
2018-05-13T22:36:32.651Z,89.84
2018-05-13T22:39:02.014Z,89.67
2018-05-13T22:41:31.285Z,89.57
2018-05-13T22:44:00.470Z,89.54
2018-05-13T22:46:29.710Z,90.22
2018-05-13T22:48:59.789Z,90.57
2018-05-13T22:51:29.025Z,90.56
2018-05-13T22:53:59.062Z,90.74
2018-05-13T22:56:28.301Z,90.92
2018-05-13T22:58:57.505Z,90.84
2018-05-13T23:01:26.732Z,90.83
2018-05-13T23:03:56.818Z,90.75
2018-05-13T23:06:26.110Z,90.57
2018-05-13T23:08:55.347Z,90.51
2018-05-13T23:11:24.538Z,89.98
2018-05-13T23:13:53.941Z,90.14
2018-05-13T23:16:23.163Z,90.16
2018-05-13T23:18:53.149Z,90.02
2018-05-13T23:21:22.421Z,90.43
2018-05-13T23:23:51.776Z,90.99
2018-05-13T23:26:21.920Z,91.28
2018-05-13T23:28:51.173Z,92.17
2018-05-13T23:31:20.390Z,93.29
2018-05-13T23:33:50.431Z,93.20
2018-05-13T23:36:19.646Z,92.93
2018-05-13T23:38:48.913Z,93.04
2018-05-13T23:41:18.415Z,93.12
2018-05-13T23:43:47.538Z,93.36
2018-05-13T23:46:16.758Z,93.39
2018-05-13T23:48:45.970Z,93.32
2018-05-13T23:51:15.253Z,93.18
2018-05-13T23:53:44.491Z,93.17
2018-05-13T23:56:14.478Z,93.14
2018-05-13T23:58:43.735Z,93.18
